createdAt,value
2023-04-01T00:00:45.172Z,9.61
2023-04-01T00:01:45.170Z,9.61
2023-04-01T00:02:45.277Z,9.62
2023-04-01T00:03:45.286Z,9.58
2023-04-01T00:04:45.246Z,9.59
2023-04-01T00:05:45.353Z,9.54
2023-04-01T00:06:45.191Z,9.64
2023-04-01T00:07:45.110Z,9.62
2023-04-01T00:08:45.081Z,9.51
2023-04-01T00:09:45.093Z,9.56
2023-04-01T00:10:45.074Z,9.61
2023-04-01T00:11:45.078Z,9.54
2023-04-01T00:12:45.070Z,9.64
2023-04-01T00:13:45.133Z,9.59
2023-04-01T00:14:45.230Z,9.58
2023-04-01T00:15:45.112Z,9.59
2023-04-01T00:16:45.026Z,9.59
2023-04-01T00:17:45.071Z,9.54
2023-04-01T00:18:45.001Z,9.62
2023-04-01T00:19:44.963Z,9.58
2023-04-01T00:20:45.006Z,9.61
2023-04-01T00:21:45.094Z,9.64
2023-04-01T00:22:44.964Z,9.58
2023-04-01T00:23:44.981Z,9.62
2023-04-01T00:24:44.907Z,9.62
2023-04-01T00:25:44.916Z,9.72
2023-04-01T00:26:44.915Z,9.69
2023-04-01T00:27:44.891Z,9.73
2023-04-01T00:28:44.901Z,9.79
2023-04-01T00:29:44.915Z,9.84
2023-04-01T00:30:44.878Z,9.80
2023-04-01T00:31:44.887Z,9.74
2023-04-01T00:32:44.921Z,9.77
2023-04-01T00:33:44.939Z,9.79
2023-04-01T00:34:44.860Z,9.89
2023-04-01T00:35:44.904Z,9.84
2023-04-01T00:36:44.798Z,9.80
2023-04-01T00:37:44.809Z,9.87
2023-04-01T00:38:44.809Z,9.87
2023-04-01T00:39:44.769Z,9.89
2023-04-01T00:40:44.782Z,9.91
2023-04-01T00:41:44.987Z,9.91
2023-04-01T00:42:44.851Z,9.87
2023-04-01T00:43:44.736Z,9.91
2023-04-01T00:44:44.713Z,9.89
2023-04-01T00:45:44.729Z,9.91
2023-04-01T00:46:44.720Z,9.86
2023-04-01T00:47:44.765Z,9.87
2023-04-01T00:48:44.724Z,9.94
2023-04-01T00:49:44.669Z,9.94
2023-04-01T00:50:44.655Z,9.92
2023-04-01T00:51:44.682Z,9.89
2023-04-01T00:52:44.634Z,9.89
2023-04-01T00:53:44.710Z,9.94
2023-04-01T00:54:44.641Z,9.86
2023-04-01T00:55:44.636Z,9.99
2023-04-01T00:56:44.636Z,9.95
2023-04-01T00:57:44.613Z,9.95
2023-04-01T00:58:44.576Z,9.97
2023-04-01T00:59:44.572Z,9.92
2023-04-01T01:00:44.661Z,9.86
2023-04-01T01:01:44.573Z,9.89
2023-04-01T01:02:44.623Z,9.97
2023-04-01T01:03:44.540Z,9.95
2023-04-01T01:04:44.540Z,9.89
2023-04-01T01:05:49.499Z,9.87
2023-04-01T01:06:44.589Z,9.99
2023-04-01T01:07:44.510Z,9.97
2023-04-01T01:08:44.490Z,9.94
2023-04-01T01:09:44.496Z,9.97
2023-04-01T01:10:44.448Z,10.04
2023-04-01T01:11:44.455Z,10.09
2023-04-01T01:12:44.485Z,10.05
2023-04-01T01:13:44.401Z,10.01
2023-04-01T01:14:44.449Z,10.01
2023-04-01T01:15:44.385Z,9.91
2023-04-01T01:16:44.516Z,9.97
2023-04-01T01:17:44.444Z,10.05
2023-04-01T01:18:44.634Z,9.99
2023-04-01T01:19:44.368Z,10.01
2023-04-01T01:20:44.364Z,10.05
2023-04-01T01:21:44.345Z,10.04
2023-04-01T01:22:44.357Z,10.15
2023-04-01T01:23:44.409Z,10.12
2023-04-01T01:24:44.329Z,10.12
2023-04-01T01:25:44.347Z,10.07
2023-04-01T01:26:44.301Z,10.12
2023-04-01T01:27:44.256Z,10.16
2023-04-01T01:28:44.266Z,10.13
2023-04-01T01:29:44.274Z,10.12
2023-04-01T01:30:44.418Z,10.07
2023-04-01T01:31:44.226Z,10.10
2023-04-01T01:32:44.320Z,10.15
2023-04-01T01:33:44.200Z,10.10
2023-04-01T01:34:44.188Z,10.17
2023-04-01T01:35:44.214Z,10.10
2023-04-01T01:36:44.207Z,10.13
2023-04-01T01:37:44.261Z,10.13
2023-04-01T01:38:44.152Z,10.15
2023-04-01T01:39:44.140Z,10.19
2023-04-01T01:40:44.121Z,10.15
2023-04-01T01:41:44.162Z,10.09
2023-04-01T01:42:44.144Z,10.15
2023-04-01T01:43:44.130Z,10.09
2023-04-01T01:44:44.102Z,10.01
2023-04-01T01:45:44.090Z,10.09
2023-04-01T01:46:44.072Z,10.04
2023-04-01T01:47:44.116Z,10.04
2023-04-01T01:48:44.062Z,10.10
2023-04-01T01:49:44.056Z,10.02
2023-04-01T01:50:44.030Z,10.10
2023-04-01T01:51:44.279Z,10.07
2023-04-01T01:52:44.047Z,10.05
2023-04-01T01:53:43.985Z,10.04
2023-04-01T01:54:43.997Z,10.04
2023-04-01T01:55:44.024Z,10.05
2023-04-01T01:56:44.028Z,10.05
2023-04-01T01:57:43.981Z,10.02
2023-04-01T01:58:43.976Z,10.10
2023-04-01T01:59:43.948Z,10.07
2023-04-01T02:00:43.916Z,10.09
2023-04-01T02:01:44.087Z,9.95
2023-04-01T02:02:43.979Z,10.02
2023-04-01T02:03:43.935Z,9.98
2023-04-01T02:04:43.938Z,9.99
2023-04-01T02:05:43.921Z,9.94
2023-04-01T02:06:43.883Z,9.94
2023-04-01T02:07:43.834Z,9.92
2023-04-01T02:08:43.868Z,9.87
2023-04-01T02:09:43.825Z,9.87
2023-04-01T02:10:43.826Z,9.86
2023-04-01T02:11:43.827Z,9.87
2023-04-01T02:12:43.822Z,9.92
2023-04-01T02:13:43.835Z,9.94
2023-04-01T02:14:43.830Z,9.86
2023-04-01T02:15:43.827Z,9.89
2023-04-01T02:16:43.772Z,9.87
2023-04-01T02:17:43.815Z,9.91
2023-04-01T02:18:43.749Z,10.01
2023-04-01T02:19:43.768Z,9.91
2023-04-01T02:20:43.730Z,9.95
2023-04-01T02:21:43.760Z,9.92
2023-04-01T02:22:43.681Z,9.97
2023-04-01T02:23:43.706Z,9.97
2023-04-01T02:24:43.708Z,9.94
2023-04-01T02:25:43.701Z,9.97
2023-04-01T02:26:43.807Z,9.84
2023-04-01T02:27:43.664Z,9.87
2023-04-01T02:28:43.645Z,9.87
2023-04-01T02:29:43.666Z,9.95
2023-04-01T02:30:43.613Z,9.86
2023-04-01T02:31:43.651Z,9.91
2023-04-01T02:32:43.656Z,9.87
2023-04-01T02:33:43.608Z,9.94
2023-04-01T02:34:43.579Z,9.91
2023-04-01T02:35:43.626Z,9.89
2023-04-01T02:36:43.661Z,9.89
2023-04-01T02:37:43.570Z,9.95
2023-04-01T02:38:43.523Z,9.91
2023-04-01T02:39:43.525Z,9.91
2023-04-01T02:40:43.527Z,9.95
2023-04-01T02:41:43.511Z,9.95
2023-04-01T02:42:43.677Z,9.95
2023-04-01T02:43:43.476Z,9.95
2023-04-01T02:44:43.515Z,9.95
2023-04-01T02:45:43.483Z,9.92
2023-04-01T02:46:43.534Z,9.98
2023-04-01T02:47:43.482Z,9.98
2023-04-01T02:48:43.441Z,9.98
2023-04-01T02:49:43.446Z,9.91
2023-04-01T02:50:43.430Z,9.91
2023-04-01T02:51:43.420Z,9.98
2023-04-01T02:52:43.439Z,9.91
2023-04-01T02:53:43.386Z,10.01
2023-04-01T02:54:43.376Z,9.91
2023-04-01T02:55:43.377Z,9.99
2023-04-01T02:56:43.550Z,9.91
2023-04-01T02:57:43.337Z,9.94
2023-04-01T02:58:43.351Z,9.97
2023-04-01T02:59:43.358Z,9.98
2023-04-01T03:00:43.420Z,9.98
2023-04-01T03:01:43.336Z,9.98
2023-04-01T03:02:43.345Z,9.94
2023-04-01T03:03:43.339Z,9.91
2023-04-01T03:04:43.467Z,9.92
2023-04-01T03:05:43.292Z,9.99
2023-04-01T03:06:43.247Z,9.89
2023-04-01T03:07:43.270Z,9.92
2023-04-01T03:08:43.206Z,9.99
2023-04-01T03:09:43.246Z,9.99
2023-04-01T03:10:43.196Z,9.91
2023-04-01T03:11:43.192Z,9.94
2023-04-01T03:12:43.175Z,9.95
2023-04-01T03:13:43.165Z,9.97
2023-04-01T03:14:43.156Z,9.91
2023-04-01T03:15:43.140Z,9.87
2023-04-01T03:16:43.178Z,9.82
2023-04-01T03:17:43.326Z,9.86
2023-04-01T03:18:43.109Z,9.83
2023-04-01T03:19:43.121Z,9.80
2023-04-01T03:20:43.103Z,9.82
2023-04-01T03:21:43.106Z,9.80
2023-04-01T03:22:43.272Z,9.77
2023-04-01T03:23:43.078Z,9.79
2023-04-01T03:24:43.074Z,9.77
2023-04-01T03:25:43.101Z,9.82
2023-04-01T03:26:43.080Z,9.92
2023-04-01T03:27:43.031Z,9.89
2023-04-01T03:28:43.020Z,9.87
2023-04-01T03:29:43.065Z,9.92
2023-04-01T03:30:43.064Z,9.98
2023-04-01T03:31:42.973Z,9.84
2023-04-01T03:32:43.070Z,9.83
2023-04-01T03:33:42.984Z,9.89
2023-04-01T03:34:42.971Z,9.89
2023-04-01T03:35:42.935Z,9.99
2023-04-01T03:36:42.947Z,9.92
2023-04-01T03:37:42.936Z,9.95
2023-04-01T03:38:42.910Z,9.95
2023-04-01T03:39:44.545Z,9.97
2023-04-01T03:40:42.914Z,10.01
2023-04-01T03:41:42.913Z,9.94
2023-04-01T03:42:42.904Z,9.89
2023-04-01T03:43:42.869Z,9.89
2023-04-01T03:44:42.891Z,9.84
2023-04-01T03:45:43.068Z,9.87
2023-04-01T03:46:43.018Z,9.77
2023-04-01T03:47:42.875Z,9.86
2023-04-01T03:48:42.816Z,9.83
2023-04-01T03:49:42.825Z,9.86
2023-04-01T03:50:42.838Z,9.84
2023-04-01T03:51:42.804Z,9.77
2023-04-01T03:52:42.756Z,9.80
2023-04-01T03:53:42.752Z,9.66
2023-04-01T03:54:42.771Z,9.68
2023-04-01T03:55:42.748Z,9.72
2023-04-01T03:56:42.705Z,9.72
2023-04-01T03:57:42.704Z,9.72
2023-04-01T03:58:42.724Z,9.73
2023-04-01T03:59:42.684Z,9.73
2023-04-01T04:00:42.744Z,9.77
2023-04-01T04:01:42.686Z,9.79
2023-04-01T04:02:42.750Z,9.77
2023-04-01T04:03:42.677Z,9.79
2023-04-01T04:04:42.773Z,9.69
2023-04-01T04:05:42.644Z,9.82
2023-04-01T04:06:42.649Z,9.80
2023-04-01T04:07:42.634Z,9.84
2023-04-01T04:08:42.617Z,9.82
2023-04-01T04:09:42.619Z,9.74
2023-04-01T04:10:42.612Z,9.74
2023-04-01T04:11:42.585Z,9.62
2023-04-01T04:12:42.562Z,9.69
2023-04-01T04:13:42.587Z,9.72
2023-04-01T04:14:42.583Z,9.74
2023-04-01T04:15:42.559Z,9.65
2023-04-01T04:16:42.532Z,9.74
2023-04-01T04:17:42.590Z,9.80
2023-04-01T04:18:42.484Z,9.72
2023-04-01T04:19:42.479Z,9.68
2023-04-01T04:20:42.494Z,9.72
2023-04-01T04:21:42.512Z,9.69
2023-04-01T04:22:42.479Z,9.76
2023-04-01T04:23:42.458Z,9.80
2023-04-01T04:24:42.482Z,9.79
2023-04-01T04:25:42.464Z,9.74
2023-04-01T04:26:42.441Z,9.73
2023-04-01T04:27:42.398Z,9.74
2023-04-01T04:28:42.390Z,9.76
2023-04-01T04:29:42.384Z,9.74
2023-04-01T04:30:42.361Z,9.76
2023-04-01T04:31:42.432Z,9.64
2023-04-01T04:32:42.400Z,9.76
2023-04-01T04:33:42.422Z,9.76
2023-04-01T04:34:42.333Z,9.68
2023-04-01T04:35:42.378Z,9.59
2023-04-01T04:36:42.313Z,9.61
2023-04-01T04:37:42.335Z,9.62
2023-04-01T04:38:42.314Z,9.61
2023-04-01T04:39:42.280Z,9.50
2023-04-01T04:40:42.276Z,9.55
2023-04-01T04:41:42.247Z,9.59
2023-04-01T04:42:42.230Z,9.66
2023-04-01T04:43:42.273Z,9.68
2023-04-01T04:44:42.207Z,9.69
2023-04-01T04:45:42.207Z,9.69
2023-04-01T04:46:42.239Z,9.68
2023-04-01T04:47:42.226Z,9.69
2023-04-01T04:48:42.172Z,9.73
2023-04-01T04:49:42.170Z,9.73
2023-04-01T04:50:42.147Z,9.72
2023-04-01T04:51:42.149Z,9.68
2023-04-01T04:52:42.127Z,9.79
2023-04-01T04:53:42.161Z,9.80
2023-04-01T04:54:42.120Z,9.73
2023-04-01T04:55:42.098Z,9.80
2023-04-01T04:56:42.083Z,9.79
2023-04-01T04:57:42.095Z,9.80
2023-04-01T04:58:42.064Z,9.74
2023-04-01T04:59:42.076Z,9.83
2023-04-01T05:00:42.058Z,9.82
2023-04-01T05:01:42.077Z,9.80
2023-04-01T05:02:42.086Z,9.69
2023-04-01T05:03:42.028Z,9.73
2023-04-01T05:04:42.017Z,9.69
2023-04-01T05:05:42.015Z,9.65
2023-04-01T05:06:41.997Z,9.65
2023-04-01T05:07:41.964Z,9.61
2023-04-01T05:08:41.989Z,9.62
2023-04-01T05:09:41.984Z,9.72
2023-04-01T05:10:41.945Z,9.73
2023-04-01T05:11:41.934Z,9.76
2023-04-01T05:12:41.920Z,9.79
2023-04-01T05:13:41.916Z,9.80
2023-04-01T05:14:41.892Z,9.87
2023-04-01T05:15:41.885Z,9.87
2023-04-01T05:16:41.930Z,9.92
2023-04-01T05:17:41.928Z,9.95
2023-04-01T05:18:41.853Z,9.87
2023-04-01T05:19:41.896Z,9.83
2023-04-01T05:20:41.843Z,9.84
2023-04-01T05:21:41.844Z,9.82
2023-04-01T05:22:41.818Z,9.83
2023-04-01T05:23:41.805Z,9.84
2023-04-01T05:24:41.793Z,9.83
2023-04-01T05:25:41.797Z,9.91
2023-04-01T05:26:41.799Z,9.97
2023-04-01T05:27:41.756Z,10.01
2023-04-01T05:28:41.775Z,9.94
2023-04-01T05:29:41.757Z,9.97
2023-04-01T05:30:41.748Z,9.97
2023-04-01T05:31:41.747Z,9.98
2023-04-01T05:32:41.800Z,10.01
2023-04-01T05:33:41.726Z,10.09
2023-04-01T05:34:41.698Z,9.97
2023-04-01T05:35:41.739Z,9.98
2023-04-01T05:36:41.694Z,10.02
2023-04-01T05:37:41.673Z,10.05
2023-04-01T05:38:41.647Z,9.92
2023-04-01T05:39:41.676Z,10.01
2023-04-01T05:40:41.666Z,9.94
2023-04-01T05:41:41.653Z,9.98
2023-04-01T05:42:41.653Z,9.99
2023-04-01T05:43:41.664Z,10.01
2023-04-01T05:44:41.611Z,10.07
2023-04-01T05:45:41.574Z,10.05
2023-04-01T05:46:41.640Z,10.07
2023-04-01T05:47:41.585Z,10.05
2023-04-01T05:48:41.585Z,9.99
2023-04-01T05:49:41.528Z,10.05
2023-04-01T05:50:41.536Z,10.02
2023-04-01T05:51:41.523Z,10.17
2023-04-01T05:52:41.500Z,10.07
2023-04-01T05:53:41.506Z,10.12
2023-04-01T05:54:41.496Z,10.15
2023-04-01T05:55:41.463Z,10.16
2023-04-01T05:56:41.457Z,10.20
2023-04-01T05:57:41.533Z,10.12
2023-04-01T05:58:41.444Z,10.17
2023-04-01T05:59:41.428Z,10.15
2023-04-01T06:00:41.418Z,10.12
2023-04-01T06:01:41.432Z,10.15
2023-04-01T06:02:41.445Z,10.23
2023-04-01T06:03:41.528Z,10.16
2023-04-01T06:04:41.430Z,10.20
2023-04-01T06:05:41.408Z,10.17
2023-04-01T06:06:41.351Z,10.22
2023-04-01T06:07:41.403Z,10.13
2023-04-01T06:08:41.353Z,10.28
2023-04-01T06:09:41.340Z,10.26
2023-04-01T06:10:41.321Z,10.25
2023-04-01T06:11:41.296Z,10.30
2023-04-01T06:12:41.334Z,10.23
2023-04-01T06:13:41.331Z,10.25
2023-04-01T06:14:41.288Z,10.26
2023-04-01T06:15:41.265Z,10.20
2023-04-01T06:16:41.299Z,10.20
2023-04-01T06:17:41.273Z,10.19
2023-04-01T06:18:41.243Z,10.22
2023-04-01T06:19:41.221Z,10.26
2023-04-01T06:20:41.253Z,10.28
2023-04-01T06:21:41.281Z,10.37
2023-04-01T06:22:41.200Z,10.23
2023-04-01T06:23:41.220Z,10.38
2023-04-01T06:24:41.235Z,10.35
2023-04-01T06:25:41.155Z,10.37
2023-04-01T06:26:41.181Z,10.41
2023-04-01T06:27:41.154Z,10.46
2023-04-01T06:28:41.190Z,10.46
2023-04-01T06:29:41.149Z,10.48
2023-04-01T06:30:41.111Z,10.49
2023-04-01T06:31:41.135Z,10.49
2023-04-01T06:32:41.222Z,10.53
2023-04-01T06:33:41.127Z,10.61
2023-04-01T06:34:41.119Z,10.60
2023-04-01T06:35:41.228Z,10.60
2023-04-01T06:36:41.137Z,10.54
2023-04-01T06:37:41.094Z,10.59
2023-04-01T06:38:41.048Z,10.49
2023-04-01T06:39:41.002Z,10.51
2023-04-01T06:40:41.057Z,10.46
2023-04-01T06:41:41.007Z,10.48
2023-04-01T06:42:41.014Z,10.54
2023-04-01T06:43:40.974Z,10.49
2023-04-01T06:44:40.992Z,10.51
2023-04-01T06:45:41.003Z,10.51
2023-04-01T06:46:40.945Z,10.57
2023-04-01T06:47:42.444Z,10.54
2023-04-01T06:48:40.935Z,10.61
2023-04-01T06:49:40.951Z,10.61
2023-04-01T06:50:40.932Z,10.60
2023-04-01T06:51:40.928Z,10.64
2023-04-01T06:52:40.933Z,10.68
2023-04-01T06:53:40.872Z,10.72
2023-04-01T06:54:40.929Z,10.78
2023-04-01T06:55:40.848Z,10.84
2023-04-01T06:56:40.868Z,10.79
2023-04-01T06:57:40.882Z,10.90
2023-04-01T06:58:40.840Z,10.86
2023-04-01T06:59:40.901Z,10.90
2023-04-01T07:00:40.818Z,10.89
2023-04-01T07:01:40.931Z,11.02
2023-04-01T07:02:40.898Z,11.02
2023-04-01T07:03:40.833Z,11.00
2023-04-01T07:04:40.848Z,11.05
2023-04-01T07:05:40.783Z,11.14
2023-04-01T07:06:40.739Z,11.18
2023-04-01T07:07:40.770Z,11.15
2023-04-01T07:08:40.728Z,11.26
2023-04-01T07:09:40.738Z,11.27
2023-04-01T07:10:40.718Z,11.15
2023-04-01T07:11:40.716Z,11.22
2023-04-01T07:12:40.750Z,11.26
2023-04-01T07:13:40.683Z,11.32
2023-04-01T07:14:40.687Z,11.44
2023-04-01T07:15:40.684Z,11.35
2023-04-01T07:16:40.800Z,11.33
2023-04-01T07:17:40.711Z,11.29
2023-04-01T07:18:40.622Z,11.47
2023-04-01T07:19:40.627Z,11.43
2023-04-01T07:20:40.606Z,11.50
2023-04-01T07:21:40.589Z,11.54
2023-04-01T07:22:40.595Z,11.47
2023-04-01T07:23:40.567Z,11.48
2023-04-01T07:24:40.597Z,11.44
2023-04-01T07:25:40.568Z,11.45
2023-04-01T07:26:40.591Z,11.52
2023-04-01T07:27:40.550Z,11.52
2023-04-01T07:28:40.557Z,11.62
2023-04-01T07:29:40.540Z,11.57
2023-04-01T07:30:40.505Z,11.60
2023-04-01T07:31:40.625Z,11.68
2023-04-01T07:32:40.528Z,11.77
2023-04-01T07:33:40.560Z,11.81
2023-04-01T07:34:40.502Z,11.84
2023-04-01T07:35:40.736Z,11.97
2023-04-01T07:36:40.478Z,11.95
2023-04-01T07:37:40.488Z,12.00
2023-04-01T07:38:40.533Z,11.91
2023-04-01T07:39:40.450Z,11.95
2023-04-01T07:40:40.426Z,12.09
2023-04-01T07:41:40.423Z,12.03
2023-04-01T07:42:40.416Z,12.09
2023-04-01T07:43:40.418Z,12.15
2023-04-01T07:44:40.414Z,12.07
2023-04-01T07:45:40.397Z,12.07
2023-04-01T07:46:40.448Z,12.13
2023-04-01T07:47:40.415Z,12.17
2023-04-01T07:48:40.430Z,12.24
2023-04-01T07:49:40.347Z,12.31
2023-04-01T07:50:40.356Z,12.29
2023-04-01T07:51:40.334Z,12.36
2023-04-01T07:52:40.347Z,12.29
2023-04-01T07:53:40.315Z,12.40
2023-04-01T07:54:40.321Z,12.32
2023-04-01T07:55:40.337Z,12.37
2023-04-01T07:56:40.292Z,12.35
2023-04-01T07:57:40.277Z,12.31
2023-04-01T07:58:40.258Z,12.31
2023-04-01T07:59:40.272Z,12.35
2023-04-01T08:00:40.279Z,12.32
2023-04-01T08:01:40.249Z,12.32
2023-04-01T08:02:40.391Z,12.29
2023-04-01T08:03:40.328Z,12.28
2023-04-01T08:04:40.266Z,12.28
2023-04-01T08:05:40.272Z,12.35
2023-04-01T08:06:40.206Z,12.32
2023-04-01T08:07:40.206Z,12.37
2023-04-01T08:08:40.184Z,12.24
2023-04-01T08:09:40.208Z,12.42
2023-04-01T08:10:40.202Z,12.42
2023-04-01T08:11:42.420Z,12.29
2023-04-01T08:12:40.169Z,12.27
2023-04-01T08:13:40.180Z,12.25
2023-04-01T08:14:40.110Z,12.15
2023-04-01T08:15:40.130Z,12.18
2023-04-01T08:16:40.290Z,12.10
2023-04-01T08:17:40.122Z,12.12
2023-04-01T08:18:40.069Z,12.10
2023-04-01T08:19:40.061Z,12.20
2023-04-01T08:20:40.260Z,12.17
2023-04-01T08:21:40.134Z,12.17
2023-04-01T08:22:40.075Z,12.25
2023-04-01T08:23:40.009Z,12.25
2023-04-01T08:24:47.188Z,12.24
2023-04-01T08:25:40.014Z,12.25
2023-04-01T08:26:40.016Z,12.25
2023-04-01T08:27:40.068Z,12.35
2023-04-01T08:28:39.966Z,12.31
2023-04-01T08:29:39.963Z,12.37
2023-04-01T08:30:39.989Z,12.45
2023-04-01T08:31:40.007Z,12.29
2023-04-01T08:32:40.007Z,12.36
2023-04-01T08:33:39.919Z,12.25
2023-04-01T08:34:39.952Z,12.36
2023-04-01T08:35:40.205Z,12.29
2023-04-01T08:36:39.898Z,12.37
2023-04-01T08:37:39.917Z,12.28
2023-04-01T08:38:39.885Z,12.27
2023-04-01T08:39:39.934Z,12.28
2023-04-01T08:40:39.864Z,12.27
2023-04-01T08:41:39.872Z,12.32
2023-04-01T08:42:39.896Z,12.29
2023-04-01T08:43:39.892Z,12.28
2023-04-01T08:44:39.856Z,12.24
2023-04-01T08:45:39.853Z,12.28
2023-04-01T08:46:39.831Z,12.22
2023-04-01T08:47:39.978Z,12.12
2023-04-01T08:48:39.797Z,12.15
2023-04-01T08:49:39.860Z,12.12
2023-04-01T08:50:39.814Z,12.17
2023-04-01T08:51:39.780Z,12.12
2023-04-01T08:52:39.803Z,12.15
2023-04-01T08:53:39.996Z,12.06
2023-04-01T08:54:39.787Z,12.06
2023-04-01T08:55:39.715Z,12.03
2023-04-01T08:56:39.734Z,12.13
2023-04-01T08:57:39.717Z,12.17
2023-04-01T08:58:39.741Z,12.24
2023-04-01T08:59:39.678Z,12.24
2023-04-01T09:00:39.801Z,12.25
2023-04-01T09:01:39.705Z,12.25
2023-04-01T09:02:39.790Z,12.32
2023-04-01T09:03:39.818Z,12.22
2023-04-01T09:04:39.728Z,12.29
2023-04-01T09:05:39.650Z,12.37
2023-04-01T09:06:39.623Z,12.37
2023-04-01T09:07:39.627Z,12.29
2023-04-01T09:08:39.610Z,12.42
2023-04-01T09:09:39.649Z,12.31
2023-04-01T09:10:39.585Z,12.35
2023-04-01T09:11:39.617Z,12.31
2023-04-01T09:12:39.575Z,12.35
2023-04-01T09:13:39.581Z,12.37
2023-04-01T09:14:39.544Z,12.65
2023-04-01T09:15:39.583Z,12.57
2023-04-01T09:16:39.520Z,12.62
2023-04-01T09:17:39.610Z,12.70
2023-04-01T09:18:39.542Z,12.70
2023-04-01T09:19:39.533Z,12.75
2023-04-01T09:20:39.528Z,12.86
2023-04-01T09:21:39.506Z,12.86
2023-04-01T09:22:39.514Z,12.80
2023-04-01T09:23:39.509Z,12.93
2023-04-01T09:24:39.470Z,12.86
2023-04-01T09:25:39.495Z,12.90
2023-04-01T09:26:39.465Z,12.82
2023-04-01T09:27:39.428Z,12.78
2023-04-01T09:28:39.466Z,12.76
2023-04-01T09:29:39.503Z,12.79
2023-04-01T09:30:39.413Z,12.72
2023-04-01T09:31:39.503Z,12.68
2023-04-01T09:32:39.443Z,12.61
2023-04-01T09:33:39.379Z,12.68
2023-04-01T09:34:39.380Z,12.65
2023-04-01T09:35:39.371Z,12.61
2023-04-01T09:36:39.364Z,12.61
2023-04-01T09:37:39.399Z,12.65
2023-04-01T09:38:39.344Z,12.61
2023-04-01T09:39:39.372Z,12.65
2023-04-01T09:40:39.358Z,12.68
2023-04-01T09:41:39.384Z,12.64
2023-04-01T09:42:39.322Z,12.61
2023-04-01T09:43:39.325Z,12.54
2023-04-01T09:44:40.230Z,12.57
2023-04-01T09:45:39.291Z,12.65
2023-04-01T09:46:39.408Z,12.68
2023-04-01T09:47:39.295Z,12.67
2023-04-01T09:48:39.298Z,12.73
2023-04-01T09:49:39.289Z,12.76
2023-04-01T09:50:39.247Z,12.80
2023-04-01T09:51:39.256Z,12.85
2023-04-01T09:52:39.212Z,12.91
2023-04-01T09:53:39.225Z,13.03
2023-04-01T09:54:39.206Z,13.08
2023-04-01T09:55:39.182Z,12.97
2023-04-01T09:56:39.245Z,13.09
2023-04-01T09:57:39.400Z,13.03
2023-04-01T09:58:43.828Z,13.05
2023-04-01T09:59:39.151Z,13.00
2023-04-01T10:00:39.168Z,13.04
2023-04-01T10:01:39.168Z,13.00
2023-04-01T10:02:39.145Z,12.91
2023-04-01T10:03:39.143Z,12.80
2023-04-01T10:04:39.148Z,12.76
2023-04-01T10:05:39.174Z,12.72
2023-04-01T10:06:39.126Z,12.67
2023-04-01T10:07:39.127Z,12.72
2023-04-01T10:08:39.067Z,12.65
2023-04-01T10:09:39.101Z,12.67
2023-04-01T10:10:39.085Z,12.58
2023-04-01T10:11:39.031Z,12.53
2023-04-01T10:12:39.117Z,12.65
2023-04-01T10:13:39.125Z,12.61
2023-04-01T10:14:39.043Z,12.57
2023-04-01T10:15:39.024Z,12.61
2023-04-01T10:16:39.170Z,12.58
2023-04-01T10:17:39.087Z,12.45
2023-04-01T10:18:38.990Z,12.53
2023-04-01T10:19:38.989Z,12.43
2023-04-01T10:20:38.961Z,12.43
2023-04-01T10:21:38.978Z,12.39
2023-04-01T10:22:38.965Z,12.37
2023-04-01T10:23:38.929Z,12.29
2023-04-01T10:24:38.924Z,12.32
2023-04-01T10:25:38.924Z,12.31
2023-04-01T10:26:38.934Z,12.27
2023-04-01T10:27:38.928Z,12.29
2023-04-01T10:28:38.899Z,12.22
2023-04-01T10:29:38.898Z,12.25
2023-04-01T10:30:38.888Z,12.29
2023-04-01T10:31:38.922Z,12.18
2023-04-01T10:32:38.915Z,12.20
2023-04-01T10:33:38.836Z,12.25
2023-04-01T10:34:38.893Z,12.28
2023-04-01T10:35:38.913Z,12.13
2023-04-01T10:36:38.837Z,12.10
2023-04-01T10:37:38.824Z,12.13
2023-04-01T10:38:38.800Z,12.06
2023-04-01T10:39:38.787Z,12.04
2023-04-01T10:40:38.803Z,12.12
2023-04-01T10:41:38.791Z,12.13
2023-04-01T10:42:38.757Z,12.09
2023-04-01T10:43:38.738Z,12.06
2023-04-01T10:44:38.739Z,12.10
2023-04-01T10:45:38.761Z,12.10
2023-04-01T10:46:38.736Z,12.10
2023-04-01T10:47:38.744Z,12.03
2023-04-01T10:48:38.683Z,11.99
2023-04-01T10:49:38.677Z,11.99
2023-04-01T10:50:38.681Z,11.90
2023-04-01T10:51:38.681Z,12.00
2023-04-01T10:52:38.655Z,12.07
2023-04-01T10:53:38.646Z,12.07
2023-04-01T10:54:38.646Z,12.10
2023-04-01T10:55:38.827Z,12.17
2023-04-01T10:56:38.611Z,12.24
2023-04-01T10:57:38.639Z,12.21
2023-04-01T10:58:38.603Z,12.21
2023-04-01T10:59:38.583Z,12.28
2023-04-01T11:00:38.575Z,12.40
2023-04-01T11:01:38.628Z,12.37
2023-04-01T11:02:38.726Z,12.32
2023-04-01T11:03:38.694Z,12.42
2023-04-01T11:04:38.538Z,12.46
2023-04-01T11:05:38.530Z,12.53
2023-04-01T11:06:38.522Z,12.65
2023-04-01T11:07:38.528Z,12.65
2023-04-01T11:08:38.505Z,12.64
2023-04-01T11:09:38.506Z,12.64
2023-04-01T11:10:38.519Z,12.60
2023-04-01T11:11:38.687Z,12.60
2023-04-01T11:12:38.461Z,12.65
2023-04-01T11:13:38.482Z,12.73
2023-04-01T11:14:38.506Z,12.78
2023-04-01T11:15:38.474Z,12.82
2023-04-01T11:16:38.556Z,12.83
2023-04-01T11:17:38.538Z,12.98
2023-04-01T11:18:38.420Z,12.93
2023-04-01T11:19:38.426Z,13.09
2023-04-01T11:20:38.401Z,13.09
2023-04-01T11:21:38.383Z,13.09
2023-04-01T11:22:38.394Z,13.19
2023-04-01T11:23:38.404Z,13.30
2023-04-01T11:24:38.423Z,13.23
2023-04-01T11:25:38.351Z,13.22
2023-04-01T11:26:38.378Z,13.20
2023-04-01T11:27:39.776Z,13.22
2023-04-01T11:28:38.537Z,13.19
2023-04-01T11:29:40.531Z,13.20
2023-04-01T11:30:38.335Z,13.01
2023-04-01T11:31:38.325Z,12.93
2023-04-01T11:32:38.354Z,12.91
2023-04-01T11:33:38.318Z,12.86
2023-04-01T11:34:38.298Z,12.90
2023-04-01T11:35:38.298Z,12.85
2023-04-01T11:36:38.288Z,12.93
2023-04-01T11:37:38.262Z,12.87
2023-04-01T11:38:38.239Z,12.87
2023-04-01T11:39:38.273Z,12.83
2023-04-01T11:40:38.233Z,12.93
2023-04-01T11:41:38.223Z,12.90
2023-04-01T11:42:38.220Z,12.80
2023-04-01T11:43:38.207Z,12.79
2023-04-01T11:44:38.192Z,12.76
2023-04-01T11:45:38.224Z,12.78
2023-04-01T11:46:38.187Z,12.75
2023-04-01T11:47:38.206Z,12.76
2023-04-01T11:48:38.245Z,12.83
2023-04-01T11:49:38.165Z,12.76
2023-04-01T11:50:38.178Z,12.79
2023-04-01T11:51:38.141Z,12.85
2023-04-01T11:52:38.224Z,12.86
2023-04-01T11:53:38.124Z,12.85
2023-04-01T11:54:38.101Z,12.87
2023-04-01T11:55:38.103Z,12.85
2023-04-01T11:56:38.104Z,12.85
2023-04-01T11:57:38.128Z,12.87
2023-04-01T11:58:38.052Z,12.98
2023-04-01T11:59:38.064Z,13.09
2023-04-01T12:00:38.057Z,13.04
2023-04-01T12:01:38.069Z,13.09
2023-04-01T12:02:38.109Z,13.22
2023-04-01T12:03:38.240Z,13.37
2023-04-01T12:04:38.093Z,13.39
2023-04-01T12:05:38.076Z,13.37
2023-04-01T12:06:38.042Z,13.44
2023-04-01T12:07:38.005Z,13.52
2023-04-01T12:08:38.011Z,13.53
2023-04-01T12:09:37.985Z,13.50
2023-04-01T12:10:37.963Z,13.52
2023-04-01T12:11:38.023Z,13.56
2023-04-01T12:12:40.114Z,13.54
2023-04-01T12:13:38.150Z,13.52
2023-04-01T12:14:37.921Z,13.57
2023-04-01T12:15:37.992Z,13.53
2023-04-01T12:16:37.971Z,13.60
2023-04-01T12:17:37.934Z,13.56
2023-04-01T12:18:37.947Z,13.49
2023-04-01T12:19:37.929Z,13.52
2023-04-01T12:20:37.917Z,13.53
2023-04-01T12:21:37.904Z,13.50
2023-04-01T12:22:37.857Z,13.49
2023-04-01T12:23:37.891Z,13.35
2023-04-01T12:24:37.862Z,13.39
2023-04-01T12:25:37.859Z,13.33
2023-04-01T12:26:37.852Z,13.22
2023-04-01T12:27:37.830Z,13.20
2023-04-01T12:28:37.816Z,13.23
2023-04-01T12:29:37.804Z,13.20
2023-04-01T12:30:37.822Z,13.23
2023-04-01T12:31:37.930Z,13.33
2023-04-01T12:32:37.807Z,13.35
2023-04-01T12:33:38.577Z,13.33
2023-04-01T12:34:37.783Z,13.20
2023-04-01T12:35:37.890Z,13.25
2023-04-01T12:36:37.784Z,13.25
2023-04-01T12:37:37.777Z,13.27
2023-04-01T12:38:37.787Z,13.22
2023-04-01T12:39:37.784Z,13.19
2023-04-01T12:40:37.714Z,13.28
2023-04-01T12:41:37.718Z,13.28
2023-04-01T12:42:37.680Z,13.27
2023-04-01T12:43:37.740Z,13.28
2023-04-01T12:44:37.717Z,13.22
2023-04-01T12:45:37.747Z,13.28
2023-04-01T12:46:37.670Z,13.22
2023-04-01T12:47:37.805Z,13.22
2023-04-01T12:48:37.659Z,13.18
2023-04-01T12:49:37.648Z,13.18
2023-04-01T12:50:37.672Z,13.18
2023-04-01T12:51:37.631Z,13.27
2023-04-01T12:52:37.633Z,13.27
2023-04-01T12:53:37.631Z,13.28
2023-04-01T12:54:37.647Z,13.27
2023-04-01T12:55:37.677Z,13.33
2023-04-01T12:56:37.622Z,13.31
2023-04-01T12:57:37.653Z,13.37
2023-04-01T12:58:37.550Z,13.31
2023-04-01T12:59:37.640Z,13.27
2023-04-01T13:00:37.701Z,13.22
2023-04-01T13:01:37.696Z,13.19